createdAt,value
2023-03-06T00:00:31.605Z,96.12
2023-03-06T00:02:58.031Z,96.19
2023-03-06T00:05:24.509Z,96.29
2023-03-06T00:07:50.953Z,96.37
2023-03-06T00:10:23.802Z,96.48
2023-03-06T00:12:56.320Z,96.17
2023-03-06T00:15:24.440Z,96.38
2023-03-06T00:17:51.448Z,96.32
2023-03-06T00:20:18.955Z,96.16
2023-03-06T00:22:45.764Z,96.70
2023-03-06T00:25:19.196Z,96.88
2023-03-06T00:27:46.149Z,96.93
2023-03-06T00:30:18.830Z,97.16
2023-03-06T00:32:45.482Z,97.59
2023-03-06T00:35:13.198Z,97.60
2023-03-06T00:37:39.974Z,97.56
2023-03-06T00:40:08.678Z,97.91
2023-03-06T00:42:35.226Z,98.46
2023-03-06T00:45:01.827Z,98.46
2023-03-06T00:47:28.435Z,98.70
2023-03-06T00:49:54.829Z,98.84
2023-03-06T00:52:21.254Z,99.41
2023-03-06T00:54:47.733Z,99.44
2023-03-06T00:57:14.240Z,99.54
2023-03-06T00:59:40.801Z,100.00
2023-03-06T01:02:07.428Z,99.92
2023-03-06T01:04:33.901Z,100.00
2023-03-06T01:07:00.361Z,100.00
2023-03-06T01:09:26.796Z,100.00
2023-03-06T01:11:53.231Z,100.00
2023-03-06T01:14:19.631Z,100.00
2023-03-06T01:16:46.805Z,100.00
2023-03-06T01:19:13.599Z,100.00
2023-03-06T01:21:40.079Z,100.00
2023-03-06T01:24:06.726Z,100.00
2023-03-06T01:26:34.457Z,100.00
2023-03-06T01:29:02.055Z,100.00
2023-03-06T01:31:28.805Z,100.00
2023-03-06T01:33:55.260Z,100.00
2023-03-06T01:36:21.697Z,100.00
2023-03-06T01:38:48.186Z,100.00
2023-03-06T01:41:15.994Z,100.00
2023-03-06T01:43:44.766Z,100.00
2023-03-06T01:46:30.350Z,100.00
2023-03-06T01:49:06.320Z,100.00
2023-03-06T01:51:46.998Z,100.00
2023-03-06T01:54:19.099Z,100.00
2023-03-06T01:56:47.972Z,100.00
2023-03-06T01:59:14.803Z,100.00
2023-03-06T02:01:41.787Z,100.00
2023-03-06T02:04:09.797Z,100.00
2023-03-06T02:06:38.848Z,100.00
2023-03-06T02:09:06.188Z,100.00
2023-03-06T02:11:32.768Z,100.00
2023-03-06T02:13:59.319Z,100.00
2023-03-06T02:16:28.926Z,100.00
2023-03-06T02:18:56.174Z,100.00
2023-03-06T02:21:33.048Z,100.00
2023-03-06T02:24:20.846Z,100.00
2023-03-06T02:26:48.244Z,100.00
2023-03-06T02:29:21.605Z,100.00
2023-03-06T02:31:48.057Z,100.00
2023-03-06T02:34:14.377Z,100.00
2023-03-06T02:36:45.520Z,100.00
2023-03-06T02:39:13.458Z,100.00
2023-03-06T02:41:40.357Z,100.00
2023-03-06T02:44:07.114Z,100.00
2023-03-06T02:46:33.637Z,100.00
2023-03-06T02:49:00.030Z,100.00
2023-03-06T02:51:26.581Z,100.00
2023-03-06T02:53:53.535Z,100.00
2023-03-06T02:56:20.516Z,100.00
2023-03-06T02:58:47.261Z,100.00
2023-03-06T03:01:13.816Z,100.00
2023-03-06T03:03:40.238Z,100.00
2023-03-06T03:06:07.427Z,100.00
2023-03-06T03:08:34.746Z,100.00
2023-03-06T03:11:01.536Z,100.00
2023-03-06T03:13:27.914Z,100.00
2023-03-06T03:16:06.256Z,100.00
2023-03-06T03:18:33.771Z,100.00
2023-03-06T03:21:00.264Z,100.00
2023-03-06T03:23:27.132Z,100.00
2023-03-06T03:25:53.588Z,100.00
2023-03-06T03:28:20.114Z,100.00
2023-03-06T03:30:46.705Z,100.00
2023-03-06T03:33:13.187Z,100.00
2023-03-06T03:35:39.615Z,100.00
2023-03-06T03:38:06.075Z,100.00
2023-03-06T03:40:32.495Z,100.00
2023-03-06T03:42:58.979Z,100.00
2023-03-06T03:45:25.677Z,100.00
2023-03-06T03:47:52.069Z,100.00
2023-03-06T03:50:18.984Z,100.00
2023-03-06T03:52:45.356Z,100.00
2023-03-06T03:55:11.952Z,100.00
2023-03-06T03:57:39.259Z,100.00
2023-03-06T04:00:07.855Z,100.00
2023-03-06T04:02:34.349Z,100.00
2023-03-06T04:05:01.020Z,100.00
2023-03-06T04:07:27.487Z,100.00
2023-03-06T04:09:53.967Z,100.00
2023-03-06T04:12:20.319Z,100.00
2023-03-06T04:14:46.813Z,100.00
2023-03-06T04:17:13.226Z,100.00
2023-03-06T04:19:39.635Z,100.00
2023-03-06T04:22:06.068Z,100.00
2023-03-06T04:24:32.475Z,100.00
2023-03-06T04:26:58.925Z,100.00
2023-03-06T04:29:25.474Z,100.00
2023-03-06T04:31:51.923Z,100.00
2023-03-06T04:34:18.384Z,100.00
2023-03-06T04:36:47.660Z,100.00
2023-03-06T04:39:14.575Z,100.00
2023-03-06T04:41:41.869Z,100.00
2023-03-06T04:44:09.247Z,100.00
2023-03-06T04:46:36.268Z,100.00
2023-03-06T04:49:03.737Z,100.00
2023-03-06T04:51:30.116Z,100.00
2023-03-06T04:53:56.697Z,100.00
2023-03-06T04:56:23.331Z,100.00
2023-03-06T04:58:49.908Z,100.00
2023-03-06T05:01:16.463Z,100.00
2023-03-06T05:03:42.919Z,100.00
2023-03-06T05:06:09.433Z,100.00
2023-03-06T05:08:35.942Z,100.00
2023-03-06T05:11:03.832Z,100.00
2023-03-06T05:13:30.613Z,100.00
2023-03-06T05:16:05.788Z,100.00
2023-03-06T05:18:33.595Z,100.00
2023-03-06T05:21:00.681Z,100.00
2023-03-06T05:23:29.007Z,100.00
2023-03-06T05:25:56.106Z,100.00
2023-03-06T05:28:22.564Z,100.00
2023-03-06T05:30:49.408Z,100.00
2023-03-06T05:33:15.937Z,100.00
2023-03-06T05:35:47.384Z,100.00
2023-03-06T05:38:15.605Z,100.00
2023-03-06T05:40:43.845Z,100.00
2023-03-06T05:43:11.760Z,100.00
2023-03-06T05:45:39.700Z,100.00
2023-03-06T05:48:07.295Z,100.00
2023-03-06T05:50:33.894Z,100.00
2023-03-06T05:53:00.364Z,100.00
2023-03-06T05:55:26.754Z,100.00
2023-03-06T05:57:53.853Z,100.00
2023-03-06T06:00:21.263Z,100.00
2023-03-06T06:02:47.676Z,100.00
2023-03-06T06:05:14.371Z,100.00
2023-03-06T06:07:41.323Z,100.00
2023-03-06T06:10:08.572Z,100.00
2023-03-06T06:12:35.006Z,100.00
2023-03-06T06:15:01.459Z,100.00
2023-03-06T06:17:27.946Z,100.00
2023-03-06T06:19:54.785Z,100.00
2023-03-06T06:22:21.233Z,100.00
2023-03-06T06:24:47.619Z,100.00
2023-03-06T06:27:14.300Z,100.00
2023-03-06T06:29:40.722Z,100.00
2023-03-06T06:32:07.344Z,100.00
2023-03-06T06:34:34.620Z,100.00
2023-03-06T06:37:01.030Z,100.00
2023-03-06T06:39:28.803Z,100.00
2023-03-06T06:42:14.634Z,100.00
2023-03-06T06:44:41.675Z,100.00
2023-03-06T06:47:25.433Z,100.00
2023-03-06T06:49:54.379Z,100.00
2023-03-06T06:52:21.258Z,100.00
2023-03-06T06:54:48.073Z,100.00
2023-03-06T06:57:14.924Z,100.00
2023-03-06T06:59:41.744Z,100.00
2023-03-06T07:02:10.496Z,100.00
2023-03-06T07:04:36.933Z,100.00
2023-03-06T07:07:03.524Z,100.00
2023-03-06T07:09:30.905Z,100.00
2023-03-06T07:11:58.092Z,100.00
2023-03-06T07:14:24.758Z,100.00
2023-03-06T07:16:51.158Z,100.00
2023-03-06T07:19:17.595Z,100.00
2023-03-06T07:21:44.035Z,100.00
2023-03-06T07:24:10.462Z,100.00
2023-03-06T07:26:37.041Z,100.00
2023-03-06T07:29:04.874Z,96.98
2023-03-06T07:31:31.651Z,91.46
2023-03-06T07:33:58.216Z,89.99
2023-03-06T07:36:24.897Z,87.80
2023-03-06T07:38:51.316Z,87.36
2023-03-06T07:41:21.851Z,85.33
2023-03-06T07:43:49.687Z,84.76
2023-03-06T07:46:16.169Z,84.42
2023-03-06T07:48:42.985Z,80.64
2023-03-06T07:51:14.738Z,78.31
2023-03-06T07:53:41.150Z,74.57
2023-03-06T07:56:09.006Z,72.86
2023-03-06T07:58:36.727Z,69.55
2023-03-06T08:01:07.832Z,69.63
2023-03-06T08:03:34.922Z,67.33
2023-03-06T08:06:27.753Z,66.64
2023-03-06T08:08:56.396Z,66.46
2023-03-06T08:11:26.831Z,68.67
2023-03-06T08:13:54.524Z,70.69
2023-03-06T08:16:22.222Z,72.61
2023-03-06T08:18:48.665Z,73.43
2023-03-06T08:21:20.436Z,74.78
2023-03-06T08:23:47.680Z,76.40
2023-03-06T08:26:20.344Z,76.75
2023-03-06T08:28:46.957Z,77.67
2023-03-06T08:31:33.592Z,77.81
2023-03-06T08:34:02.791Z,78.12
2023-03-06T08:36:29.588Z,77.99
2023-03-06T08:38:56.378Z,77.27
2023-03-06T08:41:23.039Z,77.51
2023-03-06T08:43:49.980Z,78.32
2023-03-06T08:46:18.751Z,77.96
2023-03-06T08:48:47.706Z,77.64
2023-03-06T08:51:14.920Z,76.80
2023-03-06T08:53:43.533Z,76.79
2023-03-06T08:56:19.603Z,76.67
2023-03-06T08:58:46.572Z,76.60
2023-03-06T09:01:15.352Z,76.59
2023-03-06T09:03:41.934Z,77.26
2023-03-06T09:06:08.588Z,76.51
2023-03-06T09:08:35.091Z,75.64
2023-03-06T09:11:01.580Z,75.35
2023-03-06T09:13:28.012Z,74.52
2023-03-06T09:15:54.439Z,74.06
2023-03-06T09:18:20.897Z,74.01
2023-03-06T09:20:47.300Z,73.85
2023-03-06T09:23:13.776Z,73.64
2023-03-06T09:25:40.182Z,72.16
2023-03-06T09:28:11.777Z,72.15
2023-03-06T09:30:40.352Z,72.73
2023-03-06T09:33:06.845Z,72.02
2023-03-06T09:35:33.265Z,71.16
2023-03-06T09:37:59.869Z,70.53
2023-03-06T09:40:41.650Z,71.07
2023-03-06T09:43:19.565Z,70.19
2023-03-06T09:45:45.982Z,68.72
2023-03-06T09:48:16.649Z,67.76
2023-03-06T09:51:02.811Z,66.00
2023-03-06T09:53:32.331Z,64.94
2023-03-06T09:56:33.426Z,66.68
2023-03-06T09:59:11.974Z,67.12
2023-03-06T10:01:42.093Z,66.10
2023-03-06T10:04:35.035Z,67.04
2023-03-06T10:07:08.358Z,66.92
2023-03-06T10:10:16.819Z,66.34
2023-03-06T10:12:50.034Z,65.68
2023-03-06T10:15:22.363Z,64.68
2023-03-06T10:17:48.940Z,64.80
2023-03-06T10:20:23.473Z,64.74
2023-03-06T10:23:25.427Z,65.46
2023-03-06T10:25:57.085Z,65.04
2023-03-06T10:28:52.678Z,63.20
2023-03-06T10:31:24.846Z,63.01
2023-03-06T10:34:07.606Z,63.91
2023-03-06T10:36:34.018Z,64.07
2023-03-06T10:39:04.490Z,63.68
2023-03-06T10:41:32.528Z,60.95
2023-03-06T10:44:05.177Z,59.41
2023-03-06T10:46:42.463Z,59.38
2023-03-06T10:49:15.033Z,60.02
2023-03-06T10:51:56.040Z,61.33
2023-03-06T10:54:22.552Z,60.32
2023-03-06T10:56:49.015Z,59.50
2023-03-06T10:59:22.862Z,60.08
2023-03-06T11:01:50.755Z,58.60
2023-03-06T11:04:25.091Z,58.88
2023-03-06T11:07:20.225Z,58.36
2023-03-06T11:09:58.845Z,57.73
2023-03-06T11:12:25.287Z,57.72
2023-03-06T11:15:09.833Z,58.48
2023-03-06T11:17:58.086Z,57.67
2023-03-06T11:20:41.276Z,58.85
2023-03-06T11:23:20.087Z,58.63
2023-03-06T11:26:21.532Z,58.58
2023-03-06T11:29:21.689Z,58.73
2023-03-06T11:31:54.577Z,59.28
2023-03-06T11:34:44.777Z,58.82
2023-03-06T11:37:42.732Z,58.96
2023-03-06T11:40:09.308Z,57.65
2023-03-06T11:42:39.190Z,56.89
2023-03-06T11:45:27.466Z,57.17
2023-03-06T11:48:15.339Z,57.35
2023-03-06T11:50:48.490Z,58.48
2023-03-06T11:53:36.927Z,57.64
2023-03-06T11:56:09.770Z,57.84
2023-03-06T11:58:48.241Z,57.23
2023-03-06T12:01:32.918Z,56.55
2023-03-06T12:04:30.352Z,56.75
2023-03-06T12:07:23.662Z,57.17
2023-03-06T12:10:01.406Z,59.53
2023-03-06T12:12:52.887Z,58.82
2023-03-06T12:15:34.574Z,60.33
2023-03-06T12:18:14.182Z,60.25
2023-03-06T12:20:46.620Z,60.48
2023-03-06T12:23:28.316Z,60.72
2023-03-06T12:26:13.022Z,61.39
2023-03-06T12:28:39.402Z,61.29
2023-03-06T12:31:17.609Z,61.67
2023-03-06T12:33:54.672Z,60.90
2023-03-06T12:36:53.664Z,61.83
2023-03-06T12:39:54.376Z,61.66
2023-03-06T12:42:28.798Z,61.87
2023-03-06T12:45:01.951Z,62.12
2023-03-06T12:47:31.369Z,62.96
2023-03-06T12:50:03.676Z,62.31
2023-03-06T12:52:32.891Z,62.20
2023-03-06T12:55:01.174Z,62.66
2023-03-06T12:57:27.749Z,63.34
2023-03-06T12:59:55.060Z,63.26
2023-03-06T13:02:47.838Z,63.06
2023-03-06T13:05:17.219Z,63.40
2023-03-06T13:07:52.774Z,63.39
2023-03-06T13:10:33.763Z,63.07
2023-03-06T13:13:23.468Z,62.63
2023-03-06T13:16:10.237Z,63.01
2023-03-06T13:18:36.692Z,62.18
2023-03-06T13:21:04.504Z,62.57
2023-03-06T13:23:33.972Z,62.94
2023-03-06T13:26:08.683Z,62.86
2023-03-06T13:28:44.998Z,63.22
2023-03-06T13:31:27.824Z,63.29
2023-03-06T13:33:59.532Z,63.52
2023-03-06T13:36:34.317Z,63.81
2023-03-06T13:39:06.107Z,63.84
2023-03-06T13:41:32.559Z,64.24
2023-03-06T13:44:01.908Z,64.74
2023-03-06T13:46:31.332Z,64.77
2023-03-06T13:49:20.772Z,64.48
2023-03-06T13:51:53.336Z,64.68
2023-03-06T13:54:47.867Z,64.34
2023-03-06T13:57:47.826Z,65.54
2023-03-06T14:00:41.423Z,65.35
2023-03-06T14:03:21.789Z,66.00
2023-03-06T14:05:51.930Z,65.80
2023-03-06T14:08:32.994Z,66.39
2023-03-06T14:11:03.600Z,66.49
2023-03-06T14:13:45.519Z,67.24
2023-03-06T14:16:23.663Z,66.94
2023-03-06T14:18:53.083Z,67.18
2023-03-06T14:21:45.453Z,67.25
2023-03-06T14:24:17.345Z,67.00
2023-03-06T14:26:48.590Z,66.16
2023-03-06T14:29:26.560Z,64.86
2023-03-06T14:31:55.762Z,65.45
2023-03-06T14:34:25.358Z,66.42
2023-03-06T14:36:54.623Z,66.22
2023-03-06T14:39:28.331Z,67.04
2023-03-06T14:42:15.125Z,67.84
2023-03-06T14:44:41.980Z,68.52
2023-03-06T14:47:33.332Z,68.55
2023-03-06T14:50:24.183Z,68.75
2023-03-06T14:52:55.158Z,69.40
2023-03-06T14:55:25.357Z,69.46
2023-03-06T14:57:58.090Z,69.28
2023-03-06T15:00:38.034Z,70.11
2023-03-06T15:03:16.357Z,69.90
2023-03-06T15:05:45.110Z,68.67
2023-03-06T15:08:18.417Z,69.08
2023-03-06T15:10:59.793Z,69.47
2023-03-06T15:13:29.296Z,70.95
2023-03-06T15:16:00.674Z,71.64
2023-03-06T15:19:04.282Z,70.91
2023-03-06T15:21:38.772Z,69.58
2023-03-06T15:24:31.644Z,68.59
2023-03-06T15:27:02.898Z,68.23
2023-03-06T15:29:29.691Z,68.63
2023-03-06T15:32:24.772Z,68.89
2023-03-06T15:35:32.052Z,67.48
2023-03-06T15:37:59.282Z,68.52
2023-03-06T15:40:29.478Z,68.36
2023-03-06T15:42:56.522Z,68.36
2023-03-06T15:45:26.296Z,67.04
2023-03-06T15:47:55.371Z,67.35
2023-03-06T15:50:27.422Z,66.99
2023-03-06T15:52:53.998Z,66.96
2023-03-06T15:55:26.017Z,66.37
2023-03-06T15:57:59.664Z,66.77
2023-03-06T16:00:29.663Z,66.43
2023-03-06T16:02:57.308Z,66.86
2023-03-06T16:05:25.128Z,66.95
2023-03-06T16:07:51.717Z,68.28
2023-03-06T16:10:21.516Z,70.41
2023-03-06T16:12:50.857Z,71.65
2023-03-06T16:15:20.686Z,73.48
2023-03-06T16:17:47.470Z,74.89
2023-03-06T16:20:19.673Z,76.06
2023-03-06T16:22:47.695Z,77.51
2023-03-06T16:25:14.408Z,78.60
2023-03-06T16:27:43.790Z,80.20
2023-03-06T16:30:20.206Z,81.82
2023-03-06T16:32:46.995Z,82.97
2023-03-06T16:35:14.804Z,84.45
2023-03-06T16:37:42.105Z,85.76
2023-03-06T16:40:25.233Z,86.79
2023-03-06T16:42:54.042Z,87.42
2023-03-06T16:45:22.212Z,87.99
2023-03-06T16:47:49.363Z,88.78
2023-03-06T16:50:26.557Z,89.36
2023-03-06T16:52:54.865Z,89.92
2023-03-06T16:55:22.211Z,90.56
2023-03-06T16:57:48.934Z,91.14
2023-03-06T17:00:16.910Z,91.17
2023-03-06T17:02:43.581Z,91.35
2023-03-06T17:05:11.946Z,92.25
2023-03-06T17:07:38.928Z,92.60
2023-03-06T17:10:09.946Z,92.87
2023-03-06T17:12:36.703Z,92.84
2023-03-06T17:15:04.262Z,93.04
2023-03-06T17:17:30.988Z,93.65
2023-03-06T17:19:57.526Z,93.78
2023-03-06T17:22:24.895Z,94.14
2023-03-06T17:24:52.210Z,94.33
2023-03-06T17:27:19.808Z,95.11
2023-03-06T17:29:46.324Z,94.70
2023-03-06T17:32:13.268Z,94.78
2023-03-06T17:34:40.289Z,94.98
2023-03-06T17:37:07.218Z,94.84
2023-03-06T17:39:35.786Z,95.43
2023-03-06T17:42:03.389Z,95.40
2023-03-06T17:44:31.463Z,95.86
2023-03-06T17:46:57.979Z,95.65
2023-03-06T17:49:25.190Z,95.73
2023-03-06T17:51:52.763Z,95.81
2023-03-06T17:54:19.373Z,96.09
2023-03-06T17:56:45.807Z,95.99
2023-03-06T17:59:12.356Z,95.82
2023-03-06T18:01:38.762Z,95.38
2023-03-06T18:04:05.563Z,94.74
2023-03-06T18:06:33.583Z,94.13
2023-03-06T18:09:01.137Z,94.50
2023-03-06T18:11:28.482Z,94.41
2023-03-06T18:13:55.371Z,94.29
2023-03-06T18:16:24.076Z,93.96
2023-03-06T18:18:56.166Z,94.07
2023-03-06T18:21:24.357Z,94.33
2023-03-06T18:23:50.995Z,94.43
2023-03-06T18:26:17.351Z,94.58
2023-03-06T18:28:45.520Z,94.40
2023-03-06T18:31:28.086Z,94.78
2023-03-06T18:33:57.863Z,94.71
2023-03-06T18:36:26.855Z,95.58
2023-03-06T18:38:54.523Z,95.68
2023-03-06T18:41:21.799Z,96.45
2023-03-06T18:43:53.095Z,96.66
2023-03-06T18:46:19.610Z,96.77
2023-03-06T18:48:46.052Z,96.83
2023-03-06T18:51:13.967Z,97.43
2023-03-06T18:53:41.073Z,97.81
2023-03-06T18:56:09.403Z,98.04
2023-03-06T18:58:36.451Z,98.23
2023-03-06T19:01:09.842Z,98.75
2023-03-06T19:03:36.422Z,98.54
2023-03-06T19:06:08.629Z,98.81
2023-03-06T19:08:36.746Z,98.83
2023-03-06T19:11:12.239Z,99.00
2023-03-06T19:13:39.044Z,98.98
2023-03-06T19:16:06.590Z,99.04
2023-03-06T19:18:33.131Z,99.21
2023-03-06T19:21:12.862Z,99.55
2023-03-06T19:23:39.743Z,100.00
2023-03-06T19:26:07.461Z,100.00
2023-03-06T19:28:36.018Z,100.00
2023-03-06T19:31:10.905Z,100.00
2023-03-06T19:33:38.055Z,100.00
2023-03-06T19:36:06.384Z,100.00
2023-03-06T19:38:33.491Z,100.00
2023-03-06T19:41:00.978Z,100.00
2023-03-06T19:43:28.796Z,100.00
2023-03-06T19:45:56.342Z,100.00
2023-03-06T19:48:23.536Z,100.00
2023-03-06T19:50:50.142Z,100.00
2023-03-06T19:53:16.880Z,100.00
2023-03-06T19:55:43.556Z,100.00
2023-03-06T19:58:11.126Z,100.00
2023-03-06T20:00:38.078Z,100.00
2023-03-06T20:03:04.808Z,100.00
2023-03-06T20:05:31.499Z,100.00
2023-03-06T20:07:57.997Z,100.00
2023-03-06T20:10:24.457Z,100.00
2023-03-06T20:12:50.863Z,100.00
2023-03-06T20:15:18.961Z,100.00
2023-03-06T20:17:45.452Z,100.00
2023-03-06T20:20:12.715Z,100.00
2023-03-06T20:22:39.359Z,100.00
2023-03-06T20:25:06.149Z,100.00
2023-03-06T20:27:33.559Z,100.00
2023-03-06T20:29:59.986Z,100.00
2023-03-06T20:32:26.482Z,100.00
2023-03-06T20:34:53.031Z,100.00
2023-03-06T20:37:19.470Z,100.00
2023-03-06T20:39:46.660Z,100.00
2023-03-06T20:42:13.070Z,100.00
2023-03-06T20:44:39.507Z,100.00
2023-03-06T20:47:05.896Z,100.00
2023-03-06T20:49:32.282Z,100.00
2023-03-06T20:51:58.727Z,100.00
2023-03-06T20:54:26.169Z,100.00
2023-03-06T20:56:52.599Z,100.00
2023-03-06T20:59:19.107Z,100.00
2023-03-06T21:01:46.865Z,100.00
2023-03-06T21:04:14.737Z,100.00
2023-03-06T21:06:46.099Z,100.00
2023-03-06T21:09:15.803Z,100.00
2023-03-06T21:11:42.297Z,100.00
2023-03-06T21:14:08.951Z,100.00
2023-03-06T21:16:36.255Z,100.00
2023-03-06T21:19:03.153Z,100.00
2023-03-06T21:21:33.378Z,100.00
2023-03-06T21:24:01.209Z,100.00
2023-03-06T21:26:30.223Z,100.00
2023-03-06T21:28:58.877Z,100.00
2023-03-06T21:31:26.287Z,100.00
2023-03-06T21:33:55.554Z,100.00
2023-03-06T21:36:22.552Z,100.00
2023-03-06T21:38:53.408Z,100.00
2023-03-06T21:41:24.722Z,100.00
2023-03-06T21:43:59.672Z,100.00
2023-03-06T21:46:27.133Z,100.00
2023-03-06T21:48:54.257Z,100.00
2023-03-06T21:51:23.457Z,100.00
2023-03-06T21:53:51.433Z,100.00
2023-03-06T21:56:19.565Z,100.00
2023-03-06T21:58:46.321Z,100.00
2023-03-06T22:01:16.874Z,100.00
2023-03-06T22:03:43.405Z,100.00
2023-03-06T22:06:15.792Z,100.00
2023-03-06T22:08:46.042Z,100.00
2023-03-06T22:11:18.527Z,100.00
2023-03-06T22:13:46.194Z,100.00
2023-03-06T22:16:12.878Z,100.00
2023-03-06T22:18:39.745Z,100.00
2023-03-06T22:21:10.746Z,100.00
2023-03-06T22:23:37.429Z,100.00
2023-03-06T22:26:05.975Z,100.00
2023-03-06T22:28:32.673Z,100.00
2023-03-06T22:31:29.180Z,100.00
2023-03-06T22:33:57.710Z,100.00
2023-03-06T22:36:24.641Z,100.00
2023-03-06T22:38:56.092Z,100.00
2023-03-06T22:41:22.858Z,100.00
2023-03-06T22:43:49.242Z,100.00
2023-03-06T22:46:17.752Z,100.00
2023-03-06T22:48:44.961Z,100.00
2023-03-06T22:51:18.203Z,100.00
2023-03-06T22:53:45.090Z,100.00
2023-03-06T22:56:14.366Z,100.00
2023-03-06T22:58:41.042Z,100.00
2023-03-06T23:01:08.519Z,100.00
2023-03-06T23:03:37.105Z,100.00
2023-03-06T23:06:24.321Z,100.00
2023-03-06T23:09:02.694Z,100.00
2023-03-06T23:11:30.084Z,100.00
2023-03-06T23:13:57.316Z,100.00
2023-03-06T23:16:24.082Z,100.00
2023-03-06T23:18:52.519Z,100.00
2023-03-06T23:21:21.481Z,100.00
2023-03-06T23:23:50.167Z,100.00
2023-03-06T23:26:18.967Z,100.00
2023-03-06T23:28:45.914Z,100.00
2023-03-06T23:31:18.815Z,100.00
2023-03-06T23:33:45.323Z,100.00
2023-03-06T23:36:14.706Z,100.00
2023-03-06T23:38:44.705Z,100.00
2023-03-06T23:41:13.814Z,100.00
2023-03-06T23:43:40.407Z,100.00
2023-03-06T23:46:07.538Z,100.00
2023-03-06T23:48:35.882Z,100.00
2023-03-06T23:51:08.314Z,100.00
2023-03-06T23:53:35.434Z,100.00
2023-03-06T23:56:05.116Z,100.00
2023-03-06T23:58:31.691Z,100.00
